Etusivu
METAR-TAF:

METAR-TAF

Lentoasemat :

Ube, Japani

Leveyspiiri: 33-57N, Pituuspiiri: 131-15E, korkeus merenpinnasta: 5 m

Tämänhetkinen sää

Tämä raportti tehtiin 54 minuuttia sitten, kello 23.00 UTC
Tuuli 6 kn lännestä, vaihdellen lännen/lounaan ja luoteen välillä
Lämpötila 16°C
Kosteus 94%
Ilmanpaine 1007 hPa
Näkyvyys: 8000 m
Muutamia pilviä 500 ft:n korkeudessa
Hajanaisia pilviä 700 ft:n korkeudessa
Hajonneita pilviä 900 ft:n korkeudessa
heikkoa sadetta

METAR: RJDC 252300Z 28006KT 250V320 8000 -RA FEW005 SCT007 BKN009 16/15 Q1007

Aika: 08:54 (23:54 UTC)


TAF: puuttuu

Säähavainnot ja -ennusteet yli 4000 lentoasemalta (METAR- ja TAF-raportit).

Käytössä olevat sääasemat on merkitty karttaan keltaisilla ja punaisilla pisteillä.

Aseta hiiri pisteen päälle nähdäksesi sääaseman nimen.

Klikkaa sitten nähdäksesi säähavainnot ja -ennusteet.

Kartan vaihtaminen: klikkaa mustalla rastilla varustettuja vihreitä pisteitä, niin voit zoomata sisään; viivalla varustettua vihreää pistettä, niin voit zoomata ulos tai vihreitä nuolia, niin pääset viereisille kartoille.


METAR-TAF: